createdAt,value
2018-10-07T00:02:07.008Z,13.70
2018-10-07T00:04:35.217Z,13.80
2018-10-07T00:07:03.950Z,13.90
2018-10-07T00:09:32.191Z,14.00
2018-10-07T00:12:00.666Z,14.30
2018-10-07T00:14:29.050Z,14.50
2018-10-07T00:16:57.216Z,14.60
2018-10-07T00:19:26.410Z,14.70
2018-10-07T00:21:54.755Z,14.70
2018-10-07T00:24:23.298Z,14.70
2018-10-07T00:26:51.655Z,14.70
2018-10-07T00:29:20.335Z,14.70
2018-10-07T00:31:55.204Z,14.70
2018-10-07T00:34:24.203Z,14.70
2018-10-07T00:36:52.437Z,14.70
2018-10-07T00:39:20.622Z,14.80
2018-10-07T00:41:49.604Z,14.70
2018-10-07T00:44:17.753Z,14.70
2018-10-07T00:46:46.231Z,14.50
2018-10-07T00:49:15.465Z,14.50
2018-10-07T00:51:43.796Z,14.50
2018-10-07T00:54:12.155Z,14.50
2018-10-07T00:56:40.379Z,14.60
2018-10-07T00:59:08.687Z,14.70
2018-10-07T01:01:36.874Z,14.90
2018-10-07T01:04:05.252Z,14.90
2018-10-07T01:06:34.188Z,15.00
2018-10-07T01:09:03.139Z,15.10
2018-10-07T01:11:31.321Z,15.10
2018-10-07T01:13:59.783Z,15.10
2018-10-07T01:16:28.068Z,15.00
2018-10-07T01:18:56.393Z,14.90
2018-10-07T01:21:24.617Z,14.80
2018-10-07T01:23:53.080Z,14.70
2018-10-07T01:26:21.645Z,14.60
2018-10-07T01:28:55.922Z,14.50
2018-10-07T01:31:31.123Z,14.40
2018-10-07T01:33:59.345Z,14.40
2018-10-07T01:36:27.617Z,14.40
2018-10-07T01:38:56.039Z,14.30
2018-10-07T01:41:24.239Z,14.20
2018-10-07T01:43:52.492Z,14.20
2018-10-07T01:46:21.005Z,14.20
2018-10-07T01:48:49.513Z,14.20
2018-10-07T01:51:18.065Z,14.10
2018-10-07T01:53:46.755Z,14.10
2018-10-07T01:56:15.095Z,14.00
2018-10-07T01:58:43.250Z,13.90
2018-10-07T02:01:11.807Z,13.90
2018-10-07T02:03:40.145Z,13.80
2018-10-07T02:06:08.300Z,13.80
2018-10-07T02:08:36.452Z,13.70
2018-10-07T02:11:05.007Z,13.70
2018-10-07T02:13:33.236Z,13.60
2018-10-07T02:16:01.916Z,13.60
2018-10-07T02:18:30.537Z,13.50
2018-10-07T02:20:58.867Z,13.40
2018-10-07T02:23:27.337Z,13.30
2018-10-07T02:25:55.565Z,13.20
2018-10-07T02:28:24.126Z,13.10
2018-10-07T02:30:52.460Z,13.00
2018-10-07T02:33:20.717Z,12.90
2018-10-07T02:35:49.572Z,12.90
2018-10-07T02:38:17.837Z,12.90
2018-10-07T02:40:46.098Z,12.80
2018-10-07T02:43:14.469Z,12.70
2018-10-07T02:45:42.711Z,12.70
2018-10-07T02:48:10.954Z,12.60
2018-10-07T02:50:40.487Z,12.50
2018-10-07T02:53:09.093Z,12.50
2018-10-07T02:55:37.734Z,12.50
2018-10-07T02:58:06.433Z,12.50
2018-10-07T03:00:34.888Z,12.60
2018-10-07T03:03:03.437Z,12.50
2018-10-07T03:05:31.871Z,12.50
2018-10-07T03:08:00.239Z,12.40
2018-10-07T03:10:28.543Z,12.40
2018-10-07T03:12:56.727Z,12.30
2018-10-07T03:15:25.116Z,12.20
2018-10-07T03:17:53.569Z,12.00
2018-10-07T03:20:21.796Z,12.00
2018-10-07T03:22:50.068Z,11.90
2018-10-07T03:25:18.436Z,11.80
2018-10-07T03:27:46.958Z,11.70
2018-10-07T03:30:15.199Z,11.60
2018-10-07T03:32:43.394Z,11.60
2018-10-07T03:35:11.577Z,11.50
2018-10-07T03:37:39.739Z,11.40
2018-10-07T03:40:08.178Z,11.40
2018-10-07T03:42:36.401Z,11.30
2018-10-07T03:45:04.826Z,11.30
2018-10-07T03:47:32.951Z,11.30
2018-10-07T03:50:01.147Z,11.20
2018-10-07T03:52:29.480Z,11.20
2018-10-07T03:54:57.652Z,11.10
2018-10-07T03:57:25.855Z,11.20
2018-10-07T03:59:54.256Z,11.10
2018-10-07T04:02:22.621Z,11.10
2018-10-07T04:04:50.780Z,11.10
2018-10-07T04:07:19.108Z,11.10
2018-10-07T04:09:47.396Z,11.10
2018-10-07T04:12:22.149Z,11.10
2018-10-07T04:14:50.432Z,11.10
2018-10-07T04:17:18.601Z,11.00
2018-10-07T04:19:46.933Z,10.90
2018-10-07T04:22:15.191Z,10.90
2018-10-07T04:24:43.791Z,10.80
2018-10-07T04:27:12.345Z,10.70
2018-10-07T04:29:40.544Z,10.70
2018-10-07T04:32:08.722Z,10.70
2018-10-07T04:34:36.880Z,10.60
2018-10-07T04:37:05.242Z,10.50
2018-10-07T04:39:33.590Z,10.50
2018-10-07T04:42:01.955Z,10.40
2018-10-07T04:44:30.183Z,10.50
2018-10-07T04:46:58.318Z,10.40
2018-10-07T04:49:26.470Z,10.30
2018-10-07T04:51:54.928Z,10.30
2018-10-07T04:54:23.352Z,10.30
2018-10-07T04:56:51.539Z,10.20
2018-10-07T04:59:20.019Z,10.30
2018-10-07T05:01:48.473Z,10.20
2018-10-07T05:04:16.710Z,10.20
2018-10-07T05:06:45.138Z,10.20
2018-10-07T05:09:13.536Z,10.10
2018-10-07T05:11:42.772Z,10.00
2018-10-07T05:14:11.988Z,10.00
2018-10-07T05:16:50.096Z,10.00
2018-10-07T05:19:18.680Z,10.10
2018-10-07T05:21:47.163Z,10.30
2018-10-07T05:24:15.409Z,10.20
2018-10-07T05:26:43.628Z,10.20
2018-10-07T05:29:11.860Z,10.10
2018-10-07T05:31:40.045Z,10.00
2018-10-07T05:34:08.261Z,9.90
2018-10-07T05:36:36.697Z,9.80
2018-10-07T05:39:07.988Z,9.70
2018-10-07T05:41:36.554Z,9.70
2018-10-07T05:44:04.730Z,9.70
2018-10-07T05:46:32.975Z,9.70
2018-10-07T05:49:01.194Z,9.70
2018-10-07T05:51:29.374Z,9.80
2018-10-07T05:53:57.932Z,9.80
2018-10-07T05:56:26.325Z,9.90
2018-10-07T05:58:56.606Z,10.00
2018-10-07T06:01:43.156Z,10.00
2018-10-07T06:04:25.501Z,10.00
2018-10-07T06:06:56.613Z,10.00
2018-10-07T06:09:28.215Z,10.10
2018-10-07T06:11:57.124Z,10.20
2018-10-07T06:14:42.582Z,10.20
2018-10-07T06:17:11.123Z,10.20
2018-10-07T06:19:39.847Z,10.30
2018-10-07T06:22:08.233Z,10.40
2018-10-07T06:24:36.705Z,10.50
2018-10-07T06:27:05.678Z,10.60
2018-10-07T06:29:34.077Z,10.70
2018-10-07T06:32:02.721Z,10.80
2018-10-07T06:34:31.125Z,11.00
2018-10-07T06:36:59.449Z,11.20
2018-10-07T06:39:28.183Z,11.50
2018-10-07T06:41:56.624Z,12.30
2018-10-07T06:44:25.083Z,13.30
2018-10-07T06:46:53.439Z,14.40
2018-10-07T06:49:22.142Z,15.70
2018-10-07T06:51:52.574Z,16.70
2018-10-07T06:54:20.855Z,17.50
2018-10-07T06:56:50.063Z,18.20
2018-10-07T06:59:18.341Z,18.80
2018-10-07T07:01:46.696Z,19.40
2018-10-07T07:04:15.394Z,19.80
2018-10-07T07:06:43.804Z,20.30
2018-10-07T07:09:12.272Z,20.80
2018-10-07T07:11:40.580Z,21.00
2018-10-07T07:14:08.860Z,21.40
2018-10-07T07:16:37.012Z,21.70
2018-10-07T07:19:05.313Z,20.50
2018-10-07T07:21:33.915Z,20.80
2018-10-07T07:24:02.367Z,21.30
2018-10-07T07:26:30.520Z,22.30
2018-10-07T07:28:59.021Z,23.30
2018-10-07T07:31:27.671Z,23.90
2018-10-07T07:33:55.831Z,24.60
2018-10-07T07:36:24.133Z,25.20
2018-10-07T07:38:52.722Z,25.80
2018-10-07T07:41:20.870Z,26.10
2018-10-07T07:43:49.106Z,27.00
2018-10-07T07:46:17.493Z,27.50
2018-10-07T07:48:46.109Z,27.50
2018-10-07T07:51:15.255Z,28.00
2018-10-07T07:53:43.627Z,28.50
2018-10-07T07:56:12.233Z,28.60
2018-10-07T07:58:40.767Z,28.60
2018-10-07T08:01:09.194Z,28.90
2018-10-07T08:03:37.541Z,28.80
2018-10-07T08:06:05.756Z,28.90
2018-10-07T08:08:34.365Z,28.40
2018-10-07T08:11:02.548Z,27.80
2018-10-07T08:13:31.812Z,27.90
2018-10-07T08:16:00.440Z,28.00
2018-10-07T08:18:28.837Z,28.60
2018-10-07T08:20:57.090Z,28.40
2018-10-07T08:23:25.709Z,28.80
2018-10-07T08:25:53.890Z,28.80
2018-10-07T08:28:22.205Z,29.20
2018-10-07T08:30:50.661Z,29.20
2018-10-07T08:33:19.059Z,29.20
2018-10-07T08:35:47.818Z,29.00
2018-10-07T08:38:16.630Z,28.20
2018-10-07T08:40:45.254Z,27.30
2018-10-07T08:43:13.941Z,27.00
2018-10-07T08:45:42.464Z,26.70
2018-10-07T08:48:11.127Z,26.10
2018-10-07T08:50:39.478Z,26.80
2018-10-07T08:53:07.988Z,27.30
2018-10-07T08:55:36.946Z,28.80
2018-10-07T08:58:05.227Z,28.20
2018-10-07T09:00:33.554Z,27.20
2018-10-07T09:03:01.721Z,26.10
2018-10-07T09:05:30.117Z,26.00
2018-10-07T09:07:58.407Z,26.00
2018-10-07T09:10:26.760Z,25.50
2018-10-07T09:12:55.043Z,24.80
2018-10-07T09:15:23.496Z,24.60
2018-10-07T09:17:51.600Z,25.00
2018-10-07T09:20:19.868Z,25.60
2018-10-07T09:22:48.071Z,26.20
2018-10-07T09:25:16.235Z,26.80
2018-10-07T09:27:45.058Z,26.50
2018-10-07T09:30:13.559Z,26.40
2018-10-07T09:32:41.921Z,25.80
2018-10-07T09:35:10.414Z,24.80
2018-10-07T09:37:38.832Z,23.90
2018-10-07T09:40:07.217Z,22.60
2018-10-07T09:42:35.506Z,21.90
2018-10-07T09:45:03.833Z,22.40
2018-10-07T09:47:32.774Z,22.90
2018-10-07T09:50:01.114Z,23.00
2018-10-07T09:52:29.597Z,23.20
2018-10-07T09:54:57.787Z,23.90
2018-10-07T09:57:26.095Z,25.00
2018-10-07T09:59:54.483Z,25.40
2018-10-07T10:02:23.000Z,26.40
2018-10-07T10:04:51.427Z,26.20
2018-10-07T10:07:19.660Z,25.80
2018-10-07T10:09:47.802Z,25.80
2018-10-07T10:12:16.184Z,25.60
2018-10-07T10:14:44.739Z,26.70
2018-10-07T10:17:16.747Z,28.40
2018-10-07T10:20:00.398Z,28.40
2018-10-07T10:24:46.792Z,28.10
2018-10-07T10:28:24.391Z,28.90
2018-10-07T10:31:03.843Z,28.60
2018-10-07T10:33:35.032Z,28.60
2018-10-07T10:36:18.482Z,29.20
2018-10-07T10:39:58.809Z,29.20
2018-10-07T10:43:44.917Z,29.20
2018-10-07T10:46:22.018Z,30.20
2018-10-07T10:49:41.092Z,30.60
2018-10-07T10:52:36.033Z,30.90
2018-10-07T10:55:22.620Z,31.00
2018-10-07T10:57:55.498Z,29.70
2018-10-07T11:00:29.498Z,27.80
2018-10-07T11:05:24.158Z,26.50
2018-10-07T11:09:20.155Z,25.60
2018-10-07T11:12:01.569Z,23.90
2018-10-07T11:15:46.861Z,23.30
2018-10-07T11:18:43.003Z,23.20
2018-10-07T11:21:40.844Z,23.50
2018-10-07T11:24:25.244Z,23.80
2018-10-07T11:27:31.848Z,23.90
2018-10-07T11:30:14.741Z,23.80
2018-10-07T11:32:56.257Z,23.50
2018-10-07T11:38:48.172Z,23.50
2018-10-07T11:41:37.622Z,23.50
2018-10-07T11:44:30.464Z,23.40
2018-10-07T11:47:22.723Z,23.20
2018-10-07T11:50:08.606Z,23.00
2018-10-07T11:53:29.029Z,22.90
2018-10-07T11:55:57.698Z,23.00
2018-10-07T11:58:25.854Z,23.30
2018-10-07T12:00:54.733Z,23.30
2018-10-07T12:03:22.898Z,23.30
2018-10-07T12:05:51.092Z,22.90
2018-10-07T12:08:19.436Z,22.90
2018-10-07T12:10:47.518Z,23.10
2018-10-07T12:13:15.644Z,23.10
2018-10-07T12:15:44.014Z,23.10
2018-10-07T12:18:12.969Z,23.20
2018-10-07T12:20:41.040Z,23.20
2018-10-07T12:23:09.141Z,23.20
2018-10-07T12:25:37.641Z,23.20
2018-10-07T12:28:07.395Z,23.20
2018-10-07T12:30:35.628Z,23.20
2018-10-07T12:33:03.812Z,23.10
2018-10-07T12:35:32.070Z,23.00
2018-10-07T12:38:00.331Z,23.00
2018-10-07T12:40:28.609Z,23.10
2018-10-07T12:42:56.758Z,23.10
2018-10-07T12:45:25.030Z,23.10
2018-10-07T12:47:53.340Z,23.20
2018-10-07T12:50:21.633Z,23.30
2018-10-07T12:52:51.210Z,23.30
2018-10-07T12:55:19.459Z,23.30
2018-10-07T12:57:47.583Z,23.30
2018-10-07T13:00:15.744Z,23.40
2018-10-07T13:02:43.816Z,23.50
2018-10-07T13:05:11.967Z,23.30
2018-10-07T13:07:40.642Z,23.30
2018-10-07T13:10:09.319Z,23.00
2018-10-07T13:12:37.502Z,22.70
2018-10-07T13:15:05.830Z,22.80
2018-10-07T13:17:34.067Z,22.90
2018-10-07T13:20:02.472Z,22.90
2018-10-07T13:22:30.694Z,22.80
2018-10-07T13:24:59.161Z,22.70
2018-10-07T13:27:27.567Z,22.70
2018-10-07T13:29:55.868Z,22.90
2018-10-07T13:32:24.092Z,23.00
2018-10-07T13:34:52.547Z,23.10
2018-10-07T13:37:20.782Z,23.10
2018-10-07T13:39:49.371Z,23.10
2018-10-07T13:42:17.620Z,23.00
2018-10-07T13:44:45.930Z,22.90
2018-10-07T13:47:14.108Z,22.70
2018-10-07T13:49:42.133Z,22.80
2018-10-07T13:52:12.145Z,22.90
2018-10-07T13:54:40.236Z,22.80
2018-10-07T13:57:08.482Z,22.70
2018-10-07T13:59:37.081Z,22.60
2018-10-07T14:02:05.385Z,22.60
2018-10-07T14:04:33.735Z,22.50
2018-10-07T14:07:02.551Z,22.50
2018-10-07T14:09:30.765Z,22.40
2018-10-07T14:11:59.747Z,22.20
2018-10-07T14:14:28.058Z,22.20
2018-10-07T14:16:56.590Z,22.30
2018-10-07T14:19:24.766Z,22.40
2018-10-07T14:21:52.962Z,22.40
2018-10-07T14:24:21.275Z,22.50
2018-10-07T14:26:49.767Z,22.50
2018-10-07T14:29:18.650Z,22.50
2018-10-07T14:31:47.873Z,22.50
2018-10-07T14:34:16.493Z,22.50
2018-10-07T14:36:44.675Z,22.50
2018-10-07T14:39:13.516Z,22.40
2018-10-07T14:41:41.810Z,22.50
2018-10-07T14:44:10.372Z,22.40
2018-10-07T14:46:39.540Z,22.50
2018-10-07T14:49:07.784Z,22.40
2018-10-07T14:51:36.029Z,22.30
2018-10-07T14:54:04.513Z,22.20
2018-10-07T14:56:32.813Z,22.20
2018-10-07T14:59:01.017Z,22.20
2018-10-07T15:01:29.243Z,22.10
2018-10-07T15:03:57.481Z,22.10
2018-10-07T15:06:25.693Z,22.10
2018-10-07T15:08:54.153Z,22.00
2018-10-07T15:11:22.640Z,21.90
2018-10-07T15:13:50.809Z,21.90
2018-10-07T15:16:19.021Z,21.90
2018-10-07T15:18:48.266Z,21.90
2018-10-07T15:21:16.810Z,21.90
2018-10-07T15:23:45.615Z,21.80
2018-10-07T15:26:14.126Z,21.80
2018-10-07T15:28:42.350Z,21.70
2018-10-07T15:31:10.544Z,21.70
2018-10-07T15:33:38.921Z,21.70
2018-10-07T15:36:07.104Z,21.70
2018-10-07T15:38:35.280Z,21.60
2018-10-07T15:41:03.655Z,21.60
2018-10-07T15:43:31.856Z,21.50
2018-10-07T15:46:00.624Z,21.50
2018-10-07T15:48:32.519Z,21.50
2018-10-07T15:51:01.184Z,21.40
2018-10-07T15:53:30.008Z,21.40
2018-10-07T15:55:58.524Z,21.30
2018-10-07T15:58:26.715Z,21.20
2018-10-07T16:00:55.248Z,21.10
2018-10-07T16:03:23.460Z,21.10
2018-10-07T16:05:51.808Z,21.00
2018-10-07T16:08:20.081Z,21.00
2018-10-07T16:10:48.376Z,20.90
2018-10-07T16:13:16.446Z,20.80
2018-10-07T16:15:44.869Z,20.70
2018-10-07T16:18:13.091Z,20.60
2018-10-07T16:20:41.835Z,20.50
2018-10-07T16:23:10.242Z,20.40
2018-10-07T16:25:38.481Z,20.30
2018-10-07T16:28:07.515Z,20.10
2018-10-07T16:30:35.802Z,20.00
2018-10-07T16:33:03.998Z,19.90
2018-10-07T16:35:32.367Z,19.80
2018-10-07T16:38:00.679Z,19.70
2018-10-07T16:40:28.923Z,19.60
2018-10-07T16:42:57.242Z,19.50
2018-10-07T16:45:25.597Z,19.50
2018-10-07T16:47:53.685Z,19.40
2018-10-07T16:50:21.920Z,19.30
2018-10-07T16:52:50.686Z,19.20
2018-10-07T16:55:18.917Z,19.10
2018-10-07T16:57:47.029Z,19.00
2018-10-07T17:00:15.222Z,18.80
2018-10-07T17:02:43.409Z,18.70
2018-10-07T17:05:12.079Z,18.70
2018-10-07T17:07:40.363Z,18.50
2018-10-07T17:10:09.049Z,18.50
2018-10-07T17:12:37.121Z,18.40
2018-10-07T17:15:05.293Z,18.40
2018-10-07T17:17:33.669Z,18.20
2018-10-07T17:20:03.256Z,18.10
2018-10-07T17:22:31.718Z,18.10
2018-10-07T17:24:59.869Z,18.00
2018-10-07T17:27:28.689Z,17.80
2018-10-07T17:29:56.930Z,17.70
2018-10-07T17:32:25.330Z,17.60
2018-10-07T17:34:53.964Z,17.50
2018-10-07T17:37:22.743Z,17.40
2018-10-07T17:39:51.420Z,17.40
2018-10-07T17:42:19.853Z,17.30
2018-10-07T17:44:48.036Z,17.30
2018-10-07T17:47:16.319Z,17.30
2018-10-07T17:49:44.463Z,17.30
2018-10-07T17:52:13.760Z,17.20
2018-10-07T17:54:42.132Z,17.20
2018-10-07T17:57:10.306Z,17.20
2018-10-07T17:59:38.609Z,17.20
2018-10-07T18:02:07.431Z,17.10
2018-10-07T18:04:35.876Z,17.00
2018-10-07T18:07:04.261Z,16.90
2018-10-07T18:09:32.577Z,16.80
2018-10-07T18:12:00.673Z,16.70
2018-10-07T18:14:28.760Z,16.80
2018-10-07T18:16:56.995Z,16.60
2018-10-07T18:19:25.369Z,16.60
2018-10-07T18:21:54.295Z,16.60
2018-10-07T18:24:23.005Z,16.50
2018-10-07T18:26:51.704Z,16.50
2018-10-07T18:29:20.067Z,16.50
2018-10-07T18:31:48.420Z,16.50
2018-10-07T18:34:16.757Z,16.40
2018-10-07T18:36:45.024Z,16.40
2018-10-07T18:39:13.484Z,16.20
2018-10-07T18:41:41.732Z,16.30
2018-10-07T18:44:09.788Z,16.20
2018-10-07T18:46:37.886Z,16.00
2018-10-07T18:49:06.389Z,16.00
2018-10-07T18:51:34.877Z,15.90
2018-10-07T18:54:03.128Z,15.90
2018-10-07T18:56:31.940Z,15.80
2018-10-07T18:59:00.252Z,15.70
2018-10-07T19:01:28.443Z,15.50
2018-10-07T19:03:56.617Z,15.50
2018-10-07T19:06:24.902Z,15.40
2018-10-07T19:08:52.968Z,15.40
2018-10-07T19:11:21.199Z,15.40
2018-10-07T19:13:49.733Z,15.40
2018-10-07T19:16:17.922Z,15.40
2018-10-07T19:18:46.466Z,15.40
2018-10-07T19:21:14.809Z,15.40
2018-10-07T19:23:42.946Z,15.30
2018-10-07T19:26:11.129Z,15.30
2018-10-07T19:28:39.137Z,15.30
2018-10-07T19:31:07.373Z,14.30
2018-10-07T19:33:35.742Z,15.20
2018-10-07T19:36:03.903Z,15.20
2018-10-07T19:38:32.110Z,15.10
2018-10-07T19:41:00.654Z,15.10
2018-10-07T19:43:29.005Z,15.10
2018-10-07T19:45:57.103Z,15.10
2018-10-07T19:48:25.538Z,15.00
2018-10-07T19:50:53.809Z,15.00
2018-10-07T19:53:22.100Z,14.90
2018-10-07T19:55:50.501Z,15.00
2018-10-07T19:58:18.861Z,15.00
2018-10-07T20:00:47.131Z,14.90
2018-10-07T20:03:15.383Z,15.00
2018-10-07T20:05:43.819Z,14.90
2018-10-07T20:08:12.032Z,14.90
2018-10-07T20:10:40.348Z,14.90
2018-10-07T20:13:08.825Z,14.80
2018-10-07T20:15:37.076Z,14.70
2018-10-07T20:18:05.424Z,14.60
2018-10-07T20:20:33.556Z,14.50
2018-10-07T20:23:02.046Z,14.40
2018-10-07T20:25:30.148Z,14.30
2018-10-07T20:27:58.406Z,14.20
2018-10-07T20:30:26.823Z,14.20
2018-10-07T20:32:54.932Z,14.10
2018-10-07T20:35:23.108Z,14.00
2018-10-07T20:37:51.417Z,14.00
2018-10-07T20:40:20.118Z,13.90
2018-10-07T20:42:48.277Z,13.90
2018-10-07T20:45:16.626Z,13.80
2018-10-07T20:47:45.059Z,13.70
2018-10-07T20:50:13.482Z,13.70
2018-10-07T20:52:42.159Z,13.60
2018-10-07T20:55:11.083Z,14.40
2018-10-07T20:57:39.599Z,13.60
2018-10-07T21:00:08.274Z,13.50
2018-10-07T21:02:36.922Z,13.50
2018-10-07T21:05:05.500Z,13.50
2018-10-07T21:07:33.727Z,13.40
2018-10-07T21:10:01.901Z,13.30
2018-10-07T21:12:30.072Z,13.20
2018-10-07T21:14:58.416Z,13.20
2018-10-07T21:17:26.716Z,13.20
2018-10-07T21:19:55.173Z,13.20
2018-10-07T21:22:23.524Z,13.20
2018-10-07T21:24:51.883Z,13.20
2018-10-07T21:27:20.409Z,13.20
2018-10-07T21:29:48.613Z,13.20
2018-10-07T21:32:17.486Z,13.10
2018-10-07T21:34:46.024Z,13.10
2018-10-07T21:37:14.825Z,13.10
2018-10-07T21:39:43.306Z,13.00
2018-10-07T21:42:11.508Z,13.00
2018-10-07T21:44:39.799Z,12.90
2018-10-07T21:47:08.017Z,12.90
2018-10-07T21:49:36.219Z,12.80
2018-10-07T21:52:04.438Z,12.70
2018-10-07T21:54:33.268Z,12.70
2018-10-07T21:57:01.563Z,12.60
2018-10-07T21:59:29.777Z,12.60
2018-10-07T22:01:58.285Z,12.60
2018-10-07T22:04:26.858Z,12.50
2018-10-07T22:06:57.138Z,12.50
2018-10-07T22:09:25.233Z,12.40
2018-10-07T22:11:53.465Z,12.30
2018-10-07T22:14:21.627Z,12.20
2018-10-07T22:16:49.787Z,12.10
2018-10-07T22:19:17.895Z,12.10
2018-10-07T22:21:45.976Z,12.00
2018-10-07T22:24:14.560Z,12.00
2018-10-07T22:26:43.018Z,12.00
2018-10-07T22:29:11.210Z,11.90
2018-10-07T22:31:41.375Z,11.90
2018-10-07T22:34:10.137Z,11.80
2018-10-07T22:36:38.561Z,11.80
2018-10-07T22:39:08.249Z,11.70
2018-10-07T22:41:36.422Z,11.70
2018-10-07T22:44:04.780Z,11.60
2018-10-07T22:46:33.239Z,11.50
2018-10-07T22:49:01.415Z,11.50
2018-10-07T22:51:30.120Z,11.50
2018-10-07T22:53:58.434Z,11.50
2018-10-07T22:56:26.795Z,11.40
2018-10-07T22:58:54.970Z,11.30
2018-10-07T23:01:23.653Z,11.30
2018-10-07T23:03:51.966Z,11.20
2018-10-07T23:06:20.464Z,11.20
2018-10-07T23:08:49.546Z,11.20
2018-10-07T23:11:18.227Z,11.10
2018-10-07T23:13:46.488Z,11.10
2018-10-07T23:16:14.783Z,11.10
2018-10-07T23:18:43.804Z,11.10
2018-10-07T23:21:13.129Z,11.10
2018-10-07T23:23:41.511Z,11.30
2018-10-07T23:26:10.186Z,11.40
2018-10-07T23:28:38.437Z,11.50
2018-10-07T23:31:06.709Z,11.50
2018-10-07T23:33:35.065Z,11.50
2018-10-07T23:36:03.661Z,11.50
2018-10-07T23:38:31.753Z,11.40
2018-10-07T23:41:00.320Z,11.40
2018-10-07T23:43:28.669Z,11.30
2018-10-07T23:45:56.840Z,11.20
2018-10-07T23:48:25.120Z,11.10
2018-10-07T23:50:53.561Z,11.10
2018-10-07T23:53:21.714Z,11.00
2018-10-07T23:55:50.071Z,11.00
2018-10-07T23:58:18.375Z,11.00
